UNGO2: Muddy Boggy, Unger, OK

                                SHEF ID:       UNGO2     Muddy Boggy Creek near Unger, OK
STATION TYPE:
Regulating: Stage = 39.00, Flow = 17600

PRECIP STAGE STAGE(2) RIV-FLOW BAT-LOAD
in ft ft cfs volt
Ccp-Rev Ccp-Rev Ccp-Rev Ccp-Rev Ccp-Rev
(America/Chicago)
07/10 00:00 0.00 10.33 ---- 332 12.81
07/10 01:00 0.00 10.27 ---- 322 12.81
07/10 02:00 0.00 10.25 ---- 318 12.81
07/10 03:00 0.00 10.22 ---- 313 12.81
07/10 04:00 0.00 10.18 ---- 306 12.81
07/10 05:00 0.00 10.15 ---- 303 12.81
07/10 06:00 0.00 10.13 ---- 299 12.81
07/10 07:00 0.00 10.09 ---- 293 12.81
07/10 08:00 0.00 10.07 ---- 289 12.81
07/10 09:00 0.00 10.05 ---- 286 12.97
07/10 10:00 0.00 10.03 ---- 283 13.21
07/10 11:00 0.00 10.01 ---- 280 13.29
07/10 12:00 0.00 9.99 ---- 276 13.29
07/10 13:00 0.00 9.97 ---- 275 13.21
07/10 14:00 0.00 9.95 ---- 272 13.05
07/10 15:00 0.00 9.94 ---- 270 12.97
07/10 16:00 0.00 9.91 ---- 265 12.97
07/10 17:00 0.00 9.90 ---- 264 12.97
07/10 18:00 0.00 9.88 ---- 260 12.97
07/10 19:00 0.00 9.86 ---- 257 12.89
07/10 20:00 0.00 9.83 ---- 253 12.89
07/10 21:00 0.00 9.82 ---- 251 12.89
07/10 22:00 0.00 9.79 ---- 248 12.89
07/10 23:00 0.00 9.78 ---- 247 12.81
Data processed at Sat 11Jul2026 04:47 GMT

NOTICE: If you are parsing this page

Please convert to using our Data API. Starting early 2026 we will be migrating to: https://water.usace.army.mil with modern pages rendered in JavaScript. When this migration completes you will no longer be able to scrape this page! CWMSDataAPI (CDA)

Timeseries IDs (TSIDs)

TSIDs used from left to right in the data table
UNGE.Precip-Inc.Total.1Hour.1Hour.Ccp-Rev
UNGE.Stage.Inst.1Hour.0.Ccp-Rev
UNGE.Stage-Alt.Inst.1Hour.0.Ccp-Rev
UNGE.Flow.Inst.1Hour.0.Ccp-Rev
UNGE.Volt-Battery Load.Inst.1Hour.0.Ccp-Rev

                            

All information presented herein is the property of the government of the United States of America and may be revised or deleted at any time without prior notice. Dissemination of this information without the expressed written consent of the Public Affairs Office, Tulsa District U.S. Army Corps of Engineers is strictly prohibited. These data are gathered electronically and, as presented, have NOT undergone any form of quality control. These data are NOT guaranteed to be valid or correct.